WMT4902 EPKK-LIPZ
Flight info
| Callsign | WMT4902 |
|---|---|
| Flight time | 1h 26m |
| Altitude | 36000 |
| Route | BABKO DCT VADEX DCT KOPAT DCT MAREG DCT NIGSI DCT RADLY DCT ROSKA M859 TULIK DCT BASOG |
| Aircraft | A21N/M-SDE1E2E3FGIJ1J4RWXY/LB1 |
Departure
| Time | 2026-05-06 07:22 |
|---|---|
| Airport | Kraków John Paul II International Airport (EPKK) |
Arrival
| Time | 2026-05-06 08:49 |
|---|---|
| Airport | Venice Marco Polo Airport (LIPZ) |
| Time | Latitude | Longitude | Altitude | Speed | Heading |
|---|---|---|---|---|---|
| 2026-05-06 06:55 | 50.07594 | 19.79799 | 800 ft | 0 kts | 258° |
| 2026-05-06 07:14 | 50.07594 | 19.79798 | 800 ft | 0 kts | 258° |
| 2026-05-06 07:17 | 50.07593 | 19.79795 | 800 ft | 0 kts | 258° |
| 2026-05-06 07:18 | 50.07592 | 19.79785 | 800 ft | 1 kts | 258° |
| 2026-05-06 07:18 | 50.07588 | 19.79742 | 800 ft | 5 kts | 277° |
| 2026-05-06 07:18 | 50.07620 | 19.79707 | 800 ft | 6 kts | 348° |
| 2026-05-06 07:18 | 50.07665 | 19.79697 | 800 ft | 6 kts | 7° |
| 2026-05-06 07:19 | 50.07695 | 19.79748 | 800 ft | 7 kts | 77° |
| 2026-05-06 07:19 | 50.07706 | 19.79830 | 800 ft | 7 kts | 78° |
| 2026-05-06 07:19 | 50.07717 | 19.79916 | 800 ft | 8 kts | 78° |
| 2026-05-06 07:19 | 50.07730 | 19.80008 | 800 ft | 8 kts | 78° |
| 2026-05-06 07:20 | 50.07744 | 19.80103 | 800 ft | 9 kts | 77° |
| 2026-05-06 07:20 | 50.07758 | 19.80205 | 800 ft | 9 kts | 77° |
| 2026-05-06 07:20 | 50.07775 | 19.80311 | 800 ft | 10 kts | 67° |
| 2026-05-06 07:20 | 50.07836 | 19.80339 | 800 ft | 10 kts | 348° |
| 2026-05-06 07:21 | 50.07908 | 19.80314 | 800 ft | 10 kts | 347° |
| 2026-05-06 07:21 | 50.07980 | 19.80287 | 800 ft | 10 kts | 347° |
| 2026-05-06 07:21 | 50.08013 | 19.80243 | 800 ft | 5 kts | 280° |
| 2026-05-06 07:21 | 50.08002 | 19.80139 | 800 ft | 28 kts | 257° |
| 2026-05-06 07:22 | 50.07902 | 19.79449 | 800 ft | 99 kts | 258° |
| 2026-05-06 07:22 | 50.07715 | 19.78090 | 800 ft | 156 kts | 258° |
| 2026-05-06 07:22 | 50.07473 | 19.76304 | 1155 ft | 173 kts | 256° |
| 2026-05-06 07:22 | 50.07212 | 19.74471 | 1787 ft | 177 kts | 255° |
| 2026-05-06 07:23 | 50.06944 | 19.72645 | 2486 ft | 175 kts | 255° |
| 2026-05-06 07:23 | 50.06664 | 19.70743 | 2904 ft | 188 kts | 256° |
| 2026-05-06 07:23 | 50.06365 | 19.68681 | 3254 ft | 205 kts | 254° |
| 2026-05-06 07:23 | 50.05773 | 19.66591 | 3555 ft | 223 kts | 230° |
| 2026-05-06 07:24 | 50.04507 | 19.65075 | 3910 ft | 240 kts | 200° |
| 2026-05-06 07:24 | 50.02860 | 19.64313 | 4390 ft | 255 kts | 194° |
| 2026-05-06 07:24 | 50.01122 | 19.63606 | 5127 ft | 260 kts | 194° |
| 2026-05-06 07:24 | 49.99394 | 19.62898 | 6014 ft | 258 kts | 195° |
| 2026-05-06 07:25 | 49.97682 | 19.62189 | 6864 ft | 257 kts | 195° |
| 2026-05-06 07:25 | 49.95972 | 19.61474 | 7657 ft | 258 kts | 195° |
| 2026-05-06 07:25 | 49.94244 | 19.60751 | 8431 ft | 259 kts | 195° |
| 2026-05-06 07:25 | 49.92523 | 19.60029 | 9177 ft | 260 kts | 196° |
| 2026-05-06 07:26 | 49.90786 | 19.59301 | 9863 ft | 262 kts | 196° |
| 2026-05-06 07:26 | 49.89009 | 19.58556 | 10333 ft | 273 kts | 197° |
| 2026-05-06 07:26 | 49.87112 | 19.57759 | 10626 ft | 290 kts | 197° |
| 2026-05-06 07:26 | 49.85138 | 19.56930 | 11008 ft | 302 kts | 197° |
| 2026-05-06 07:27 | 49.83087 | 19.56073 | 11600 ft | 307 kts | 197° |
| 2026-05-06 07:27 | 49.81027 | 19.55211 | 12203 ft | 311 kts | 197° |
| 2026-05-06 07:27 | 49.78944 | 19.54337 | 12795 ft | 315 kts | 197° |
| 2026-05-06 07:27 | 49.76835 | 19.53451 | 13415 ft | 317 kts | 197° |
| 2026-05-06 07:28 | 49.74708 | 19.52561 | 14029 ft | 320 kts | 197° |
| 2026-05-06 07:28 | 49.72547 | 19.51659 | 14646 ft | 322 kts | 196° |
| 2026-05-06 07:28 | 49.68200 | 19.49849 | 15794 ft | 327 kts | 196° |
| 2026-05-06 07:29 | 49.66014 | 19.48940 | 16336 ft | 329 kts | 196° |
| 2026-05-06 07:29 | 49.63789 | 19.48008 | 16888 ft | 331 kts | 198° |
| 2026-05-06 07:29 | 49.61642 | 19.46649 | 17402 ft | 334 kts | 208° |
| 2026-05-06 07:29 | 49.59730 | 19.44623 | 17916 ft | 338 kts | 220° |
| 2026-05-06 07:30 | 49.58043 | 19.42137 | 18414 ft | 341 kts | 224° |
| 2026-05-06 07:30 | 49.56358 | 19.39504 | 18884 ft | 344 kts | 224° |
| 2026-05-06 07:30 | 49.54674 | 19.36856 | 19338 ft | 347 kts | 224° |
| 2026-05-06 07:30 | 49.52978 | 19.34196 | 19787 ft | 350 kts | 224° |
| 2026-05-06 07:31 | 49.51278 | 19.31538 | 20228 ft | 353 kts | 224° |
| 2026-05-06 07:31 | 49.49522 | 19.28798 | 20679 ft | 355 kts | 224° |
| 2026-05-06 07:31 | 49.47787 | 19.26100 | 21103 ft | 358 kts | 224° |
| 2026-05-06 07:31 | 49.46038 | 19.23381 | 21519 ft | 360 kts | 224° |
| 2026-05-06 07:32 | 49.44265 | 19.20630 | 21930 ft | 363 kts | 224° |
| 2026-05-06 07:32 | 49.42464 | 19.17841 | 22329 ft | 366 kts | 225° |
| 2026-05-06 07:32 | 49.40678 | 19.15077 | 22717 ft | 368 kts | 225° |
| 2026-05-06 07:32 | 49.38856 | 19.12262 | 23093 ft | 371 kts | 225° |
| 2026-05-06 07:33 | 49.37043 | 19.09463 | 23461 ft | 373 kts | 225° |
| 2026-05-06 07:33 | 49.35192 | 19.06608 | 23827 ft | 376 kts | 225° |
| 2026-05-06 07:33 | 49.33361 | 19.03789 | 24172 ft | 378 kts | 225° |
| 2026-05-06 07:33 | 49.31492 | 19.00913 | 24527 ft | 381 kts | 225° |
| 2026-05-06 07:34 | 49.29626 | 18.98045 | 24877 ft | 383 kts | 225° |
| 2026-05-06 07:34 | 49.27734 | 18.95141 | 25223 ft | 385 kts | 225° |
| 2026-05-06 07:34 | 49.25827 | 18.92216 | 25573 ft | 387 kts | 225° |
| 2026-05-06 07:34 | 49.23923 | 18.89301 | 25888 ft | 389 kts | 225° |
| 2026-05-06 07:35 | 49.22030 | 18.86407 | 26197 ft | 391 kts | 225° |
| 2026-05-06 07:35 | 49.20089 | 18.83441 | 26510 ft | 393 kts | 225° |
| 2026-05-06 07:35 | 49.18165 | 18.80506 | 26813 ft | 395 kts | 225° |
| 2026-05-06 07:35 | 49.16221 | 18.77544 | 27112 ft | 397 kts | 225° |
| 2026-05-06 07:36 | 49.14249 | 18.74544 | 27404 ft | 399 kts | 225° |
| 2026-05-06 07:36 | 49.12287 | 18.71561 | 27691 ft | 401 kts | 225° |
| 2026-05-06 07:36 | 49.10317 | 18.68570 | 27974 ft | 402 kts | 225° |
| 2026-05-06 07:36 | 49.08339 | 18.65570 | 28254 ft | 404 kts | 225° |
| 2026-05-06 07:37 | 49.06322 | 18.62514 | 28523 ft | 406 kts | 225° |
| 2026-05-06 07:37 | 49.04329 | 18.59500 | 28777 ft | 409 kts | 225° |
| 2026-05-06 07:37 | 49.02300 | 18.56433 | 29044 ft | 410 kts | 225° |
| 2026-05-06 07:37 | 49.00274 | 18.53376 | 29308 ft | 412 kts | 225° |
| 2026-05-06 07:38 | 48.98238 | 18.50307 | 29580 ft | 414 kts | 225° |
| 2026-05-06 07:38 | 48.96198 | 18.47234 | 29864 ft | 415 kts | 225° |
| 2026-05-06 07:38 | 48.94136 | 18.44134 | 30125 ft | 416 kts | 225° |
| 2026-05-06 07:38 | 48.92059 | 18.41014 | 30375 ft | 418 kts | 225° |
| 2026-05-06 07:39 | 48.89982 | 18.37899 | 30619 ft | 420 kts | 225° |
| 2026-05-06 07:39 | 48.87900 | 18.34780 | 30865 ft | 421 kts | 225° |
| 2026-05-06 07:39 | 48.85804 | 18.31643 | 31105 ft | 423 kts | 225° |
| 2026-05-06 07:39 | 48.83698 | 18.28496 | 31354 ft | 424 kts | 225° |
| 2026-05-06 07:40 | 48.81613 | 18.25386 | 31598 ft | 425 kts | 225° |
| 2026-05-06 07:40 | 48.79499 | 18.22234 | 31827 ft | 427 kts | 225° |
| 2026-05-06 07:40 | 48.77368 | 18.19061 | 32049 ft | 429 kts | 225° |
| 2026-05-06 07:40 | 48.75245 | 18.15903 | 32273 ft | 430 kts | 225° |
| 2026-05-06 07:41 | 48.73105 | 18.12727 | 32566 ft | 429 kts | 225° |
| 2026-05-06 07:41 | 48.71000 | 18.09605 | 32891 ft | 428 kts | 225° |
| 2026-05-06 07:41 | 48.68860 | 18.06436 | 33197 ft | 427 kts | 225° |
| 2026-05-06 07:41 | 48.66763 | 18.03333 | 33486 ft | 426 kts | 225° |
| 2026-05-06 07:42 | 48.64639 | 18.00194 | 33769 ft | 425 kts | 225° |
| 2026-05-06 07:42 | 48.62521 | 17.97067 | 34063 ft | 424 kts | 225° |
| 2026-05-06 07:42 | 48.60405 | 17.93947 | 34349 ft | 423 kts | 225° |
| 2026-05-06 07:42 | 48.58318 | 17.90875 | 34579 ft | 423 kts | 225° |
| 2026-05-06 07:43 | 48.56205 | 17.87768 | 34778 ft | 424 kts | 225° |
| 2026-05-06 07:43 | 48.54082 | 17.84650 | 34965 ft | 425 kts | 225° |
| 2026-05-06 07:43 | 48.51961 | 17.81538 | 35166 ft | 426 kts | 225° |
| 2026-05-06 07:43 | 48.49850 | 17.78445 | 35368 ft | 426 kts | 225° |
| 2026-05-06 07:44 | 48.47717 | 17.75323 | 35547 ft | 426 kts | 225° |
| 2026-05-06 07:44 | 48.45587 | 17.72210 | 35720 ft | 427 kts | 225° |
| 2026-05-06 07:44 | 48.43447 | 17.69087 | 35883 ft | 428 kts | 225° |
| 2026-05-06 07:44 | 48.41311 | 17.65971 | 35901 ft | 428 kts | 225° |
| 2026-05-06 07:45 | 48.37018 | 17.59724 | 35904 ft | 428 kts | 225° |
| 2026-05-06 07:45 | 48.32758 | 17.53540 | 35900 ft | 428 kts | 225° |
| 2026-05-06 07:46 | 48.28448 | 17.47298 | 35892 ft | 428 kts | 225° |
| 2026-05-06 07:46 | 48.24171 | 17.41120 | 35887 ft | 427 kts | 225° |
| 2026-05-06 07:47 | 48.19899 | 17.34965 | 35884 ft | 427 kts | 225° |
| 2026-05-06 07:47 | 48.15618 | 17.28811 | 35883 ft | 427 kts | 225° |
| 2026-05-06 07:48 | 48.11339 | 17.22675 | 35883 ft | 427 kts | 224° |
| 2026-05-06 07:48 | 48.07047 | 17.16535 | 35883 ft | 426 kts | 224° |
| 2026-05-06 07:49 | 48.02751 | 17.10404 | 35883 ft | 426 kts | 224° |
| 2026-05-06 07:49 | 47.98486 | 17.04338 | 35883 ft | 425 kts | 225° |
| 2026-05-06 07:50 | 47.94191 | 16.98243 | 35883 ft | 424 kts | 225° |
| 2026-05-06 07:50 | 47.89933 | 16.92207 | 35883 ft | 423 kts | 225° |
| 2026-05-06 07:51 | 47.85669 | 16.86176 | 35883 ft | 423 kts | 225° |
| 2026-05-06 07:51 | 47.81406 | 16.80165 | 35883 ft | 423 kts | 225° |
| 2026-05-06 07:52 | 47.77136 | 16.74159 | 35883 ft | 423 kts | 225° |
| 2026-05-06 07:52 | 47.72872 | 16.68176 | 35891 ft | 422 kts | 225° |
| 2026-05-06 07:53 | 47.68588 | 16.62178 | 35910 ft | 421 kts | 225° |
| 2026-05-06 07:53 | 47.64334 | 16.56236 | 35941 ft | 421 kts | 224° |
| 2026-05-06 07:54 | 47.60058 | 16.50279 | 35971 ft | 420 kts | 224° |
| 2026-05-06 07:54 | 47.55814 | 16.44379 | 35986 ft | 420 kts | 224° |
| 2026-05-06 07:55 | 47.51551 | 16.38468 | 35993 ft | 419 kts | 224° |
| 2026-05-06 07:55 | 47.47261 | 16.32531 | 35997 ft | 419 kts | 224° |
| 2026-05-06 07:56 | 47.43005 | 16.26657 | 35997 ft | 419 kts | 224° |
| 2026-05-06 07:56 | 47.38729 | 16.20769 | 35997 ft | 419 kts | 224° |
| 2026-05-06 07:57 | 47.34455 | 16.14897 | 35997 ft | 420 kts | 224° |
| 2026-05-06 07:57 | 47.30190 | 16.09051 | 35997 ft | 420 kts | 224° |
| 2026-05-06 07:58 | 47.25934 | 16.03230 | 35996 ft | 420 kts | 224° |
| 2026-05-06 07:58 | 47.21650 | 15.97385 | 35985 ft | 417 kts | 224° |
| 2026-05-06 07:59 | 47.17406 | 15.91608 | 35779 ft | 416 kts | 224° |
| 2026-05-06 07:59 | 47.15302 | 15.88750 | 35531 ft | 416 kts | 224° |
| 2026-05-06 07:59 | 47.13176 | 15.85864 | 35281 ft | 415 kts | 224° |
| 2026-05-06 08:00 | 47.11052 | 15.82985 | 35031 ft | 416 kts | 224° |
| 2026-05-06 08:00 | 47.08947 | 15.80136 | 34906 ft | 415 kts | 225° |
| 2026-05-06 08:00 | 47.04709 | 15.74404 | 34895 ft | 415 kts | 225° |
| 2026-05-06 08:01 | 47.00453 | 15.68661 | 34887 ft | 414 kts | 225° |
| 2026-05-06 08:01 | 46.96233 | 15.62980 | 34885 ft | 414 kts | 225° |
| 2026-05-06 08:02 | 46.92004 | 15.57299 | 34884 ft | 414 kts | 225° |
| 2026-05-06 08:02 | 46.87750 | 15.51599 | 34883 ft | 413 kts | 225° |
| 2026-05-06 08:03 | 46.83490 | 15.45905 | 34883 ft | 412 kts | 225° |
| 2026-05-06 08:03 | 46.79264 | 15.40267 | 34884 ft | 412 kts | 225° |
| 2026-05-06 08:04 | 46.75063 | 15.34675 | 34884 ft | 411 kts | 224° |
| 2026-05-06 08:04 | 46.70813 | 15.29033 | 34884 ft | 411 kts | 225° |
| 2026-05-06 08:05 | 46.66605 | 15.23382 | 34883 ft | 410 kts | 226° |
| 2026-05-06 08:05 | 46.62736 | 15.17285 | 34888 ft | 409 kts | 232° |
| 2026-05-06 08:06 | 46.59219 | 15.10876 | 34897 ft | 407 kts | 233° |
| 2026-05-06 08:06 | 46.55659 | 15.04374 | 34905 ft | 407 kts | 233° |
| 2026-05-06 08:07 | 46.52144 | 14.97964 | 34912 ft | 406 kts | 233° |
| 2026-05-06 08:07 | 46.48624 | 14.91557 | 34919 ft | 406 kts | 233° |
| 2026-05-06 08:08 | 46.45096 | 14.85150 | 34926 ft | 405 kts | 233° |
| 2026-05-06 08:08 | 46.41585 | 14.78785 | 34932 ft | 405 kts | 233° |
| 2026-05-06 08:09 | 46.38079 | 14.72447 | 34935 ft | 403 kts | 233° |
| 2026-05-06 08:09 | 46.34581 | 14.66135 | 34936 ft | 402 kts | 233° |
| 2026-05-06 08:10 | 46.31124 | 14.59910 | 34936 ft | 401 kts | 233° |
| 2026-05-06 08:10 | 46.27638 | 14.53649 | 34938 ft | 400 kts | 233° |
| 2026-05-06 08:11 | 46.24149 | 14.47395 | 34949 ft | 400 kts | 233° |
| 2026-05-06 08:11 | 46.20685 | 14.41201 | 34956 ft | 399 kts | 233° |
| 2026-05-06 08:12 | 46.17252 | 14.34932 | 34960 ft | 398 kts | 233° |
| 2026-05-06 08:13 | 46.10912 | 14.23221 | 34962 ft | 398 kts | 233° |
| 2026-05-06 08:13 | 46.07426 | 14.16821 | 34962 ft | 397 kts | 233° |
| 2026-05-06 08:14 | 46.03993 | 14.10537 | 34962 ft | 397 kts | 233° |
| 2026-05-06 08:14 | 46.00556 | 14.04261 | 34959 ft | 397 kts | 233° |
| 2026-05-06 08:15 | 45.97138 | 13.98034 | 34953 ft | 396 kts | 233° |
| 2026-05-06 08:15 | 45.93718 | 13.91815 | 34948 ft | 396 kts | 233° |
| 2026-05-06 08:16 | 45.90324 | 13.85655 | 34861 ft | 398 kts | 233° |
| 2026-05-06 08:16 | 45.88605 | 13.82540 | 34417 ft | 400 kts | 233° |
| 2026-05-06 08:16 | 45.86901 | 13.79458 | 33701 ft | 403 kts | 233° |
| 2026-05-06 08:17 | 45.85146 | 13.76282 | 32774 ft | 408 kts | 233° |
| 2026-05-06 08:17 | 45.83386 | 13.73101 | 31775 ft | 415 kts | 232° |
| 2026-05-06 08:17 | 45.81591 | 13.69863 | 30999 ft | 416 kts | 232° |
| 2026-05-06 08:17 | 45.79807 | 13.66648 | 30428 ft | 412 kts | 232° |
| 2026-05-06 08:18 | 45.78044 | 13.63478 | 29840 ft | 410 kts | 232° |
| 2026-05-06 08:18 | 45.76277 | 13.60304 | 29233 ft | 408 kts | 232° |
| 2026-05-06 08:18 | 45.74514 | 13.57141 | 28670 ft | 404 kts | 232° |
| 2026-05-06 08:18 | 45.72786 | 13.54045 | 28117 ft | 401 kts | 232° |
| 2026-05-06 08:19 | 45.71044 | 13.50924 | 27567 ft | 398 kts | 232° |
| 2026-05-06 08:19 | 45.69334 | 13.47864 | 26958 ft | 396 kts | 231° |
| 2026-05-06 08:19 | 45.67638 | 13.44833 | 26361 ft | 394 kts | 231° |
| 2026-05-06 08:19 | 45.65935 | 13.41793 | 25826 ft | 391 kts | 231° |
| 2026-05-06 08:20 | 45.64254 | 13.38794 | 25310 ft | 387 kts | 231° |
| 2026-05-06 08:20 | 45.62579 | 13.35811 | 24802 ft | 383 kts | 231° |
| 2026-05-06 08:20 | 45.60912 | 13.32845 | 24301 ft | 380 kts | 230° |
| 2026-05-06 08:20 | 45.59256 | 13.29900 | 23812 ft | 376 kts | 230° |
| 2026-05-06 08:21 | 45.57631 | 13.27017 | 23338 ft | 372 kts | 230° |
| 2026-05-06 08:21 | 45.56032 | 13.24185 | 22877 ft | 369 kts | 230° |
| 2026-05-06 08:21 | 45.54435 | 13.21357 | 22413 ft | 365 kts | 230° |
| 2026-05-06 08:21 | 45.52856 | 13.18562 | 21947 ft | 362 kts | 230° |
| 2026-05-06 08:22 | 45.51292 | 13.15798 | 21492 ft | 359 kts | 230° |
| 2026-05-06 08:22 | 45.49726 | 13.13032 | 21035 ft | 355 kts | 230° |
| 2026-05-06 08:22 | 45.48188 | 13.10317 | 20581 ft | 352 kts | 231° |
| 2026-05-06 08:22 | 45.46667 | 13.07634 | 20114 ft | 349 kts | 231° |
| 2026-05-06 08:23 | 45.45150 | 13.04962 | 19658 ft | 346 kts | 231° |
| 2026-05-06 08:23 | 45.43659 | 13.02337 | 19212 ft | 343 kts | 231° |
| 2026-05-06 08:23 | 45.42157 | 12.99696 | 18759 ft | 341 kts | 231° |
| 2026-05-06 08:23 | 45.40671 | 12.97087 | 18310 ft | 338 kts | 231° |
| 2026-05-06 08:24 | 45.39204 | 12.94513 | 17866 ft | 335 kts | 231° |
| 2026-05-06 08:24 | 45.37761 | 12.91979 | 17424 ft | 332 kts | 231° |
| 2026-05-06 08:24 | 45.36312 | 12.89438 | 16973 ft | 330 kts | 231° |
| 2026-05-06 08:24 | 45.34880 | 12.86929 | 16520 ft | 328 kts | 231° |
| 2026-05-06 08:25 | 45.33442 | 12.84414 | 16065 ft | 326 kts | 231° |
| 2026-05-06 08:25 | 45.32033 | 12.81950 | 15621 ft | 324 kts | 231° |
| 2026-05-06 08:25 | 45.30618 | 12.79477 | 15177 ft | 322 kts | 231° |
| 2026-05-06 08:25 | 45.29210 | 12.77020 | 14732 ft | 320 kts | 231° |
| 2026-05-06 08:26 | 45.27811 | 12.74583 | 14295 ft | 318 kts | 231° |
| 2026-05-06 08:26 | 45.26409 | 12.72140 | 13856 ft | 316 kts | 231° |
| 2026-05-06 08:26 | 45.25052 | 12.69778 | 13437 ft | 309 kts | 231° |
| 2026-05-06 08:26 | 45.23714 | 12.67452 | 13017 ft | 297 kts | 231° |
| 2026-05-06 08:27 | 45.22443 | 12.65245 | 12620 ft | 286 kts | 231° |
| 2026-05-06 08:27 | 45.21196 | 12.63078 | 12233 ft | 276 kts | 231° |
| 2026-05-06 08:27 | 45.19997 | 12.60999 | 11853 ft | 272 kts | 231° |
| 2026-05-06 08:27 | 45.18804 | 12.58933 | 11488 ft | 270 kts | 231° |
| 2026-05-06 08:28 | 45.17629 | 12.56898 | 11123 ft | 268 kts | 231° |
| 2026-05-06 08:28 | 45.16446 | 12.54850 | 10764 ft | 266 kts | 231° |
| 2026-05-06 08:28 | 45.15293 | 12.52856 | 10416 ft | 264 kts | 231° |
| 2026-05-06 08:28 | 45.14166 | 12.50795 | 10056 ft | 262 kts | 237° |
| 2026-05-06 08:29 | 45.13334 | 12.48535 | 9836 ft | 255 kts | 248° |
| 2026-05-06 08:29 | 45.12847 | 12.46204 | 9857 ft | 246 kts | 256° |
| 2026-05-06 08:29 | 45.12537 | 12.43936 | 9883 ft | 247 kts | 258° |
| 2026-05-06 08:29 | 45.12226 | 12.41466 | 9909 ft | 247 kts | 258° |
| 2026-05-06 08:30 | 45.11934 | 12.39128 | 9923 ft | 247 kts | 258° |
| 2026-05-06 08:30 | 45.11635 | 12.36763 | 9746 ft | 247 kts | 258° |
| 2026-05-06 08:30 | 45.11331 | 12.34383 | 9546 ft | 245 kts | 257° |
| 2026-05-06 08:30 | 45.11025 | 12.32001 | 9345 ft | 246 kts | 257° |
| 2026-05-06 08:31 | 45.10715 | 12.29612 | 9144 ft | 245 kts | 257° |
| 2026-05-06 08:31 | 45.10405 | 12.27232 | 8943 ft | 245 kts | 257° |
| 2026-05-06 08:31 | 45.10096 | 12.24856 | 8728 ft | 245 kts | 257° |
| 2026-05-06 08:31 | 45.09790 | 12.22517 | 8480 ft | 244 kts | 257° |
| 2026-05-06 08:32 | 45.09481 | 12.20156 | 8228 ft | 242 kts | 257° |
| 2026-05-06 08:32 | 45.09179 | 12.17832 | 7931 ft | 242 kts | 257° |
| 2026-05-06 08:32 | 45.08875 | 12.15477 | 7627 ft | 242 kts | 260° |
| 2026-05-06 08:32 | 45.09018 | 12.13130 | 7278 ft | 246 kts | 292° |
| 2026-05-06 08:33 | 45.09965 | 12.11155 | 6947 ft | 251 kts | 317° |
| 2026-05-06 08:33 | 45.11528 | 12.10054 | 6575 ft | 256 kts | 345° |
| 2026-05-06 08:33 | 45.13287 | 12.09605 | 6207 ft | 257 kts | 349° |
| 2026-05-06 08:33 | 45.15046 | 12.09238 | 5834 ft | 258 kts | 350° |
| 2026-05-06 08:34 | 45.16803 | 12.08858 | 5464 ft | 259 kts | 349° |
| 2026-05-06 08:34 | 45.20355 | 12.08027 | 4714 ft | 259 kts | 352° |
| 2026-05-06 08:34 | 45.22140 | 12.08212 | 4385 ft | 258 kts | 20° |
| 2026-05-06 08:35 | 45.23589 | 12.09550 | 4136 ft | 252 kts | 50° |
| 2026-05-06 08:35 | 45.24358 | 12.11718 | 3991 ft | 240 kts | 82° |
| 2026-05-06 08:35 | 45.24238 | 12.14059 | 3997 ft | 239 kts | 108° |
| 2026-05-06 08:35 | 45.23621 | 12.16221 | 3998 ft | 239 kts | 116° |
| 2026-05-06 08:36 | 45.22881 | 12.18325 | 3995 ft | 239 kts | 118° |
| 2026-05-06 08:36 | 45.22062 | 12.20371 | 3993 ft | 238 kts | 125° |
| 2026-05-06 08:36 | 45.21093 | 12.22284 | 3993 ft | 237 kts | 128° |
| 2026-05-06 08:36 | 45.20035 | 12.24033 | 3982 ft | 236 kts | 143° |
| 2026-05-06 08:37 | 45.18535 | 12.24945 | 3987 ft | 234 kts | 173° |
| 2026-05-06 08:37 | 45.16927 | 12.25047 | 3993 ft | 234 kts | 185° |
| 2026-05-06 08:37 | 45.15397 | 12.24354 | 3984 ft | 233 kts | 216° |
| 2026-05-06 08:37 | 45.14342 | 12.22634 | 3992 ft | 228 kts | 241° |
| 2026-05-06 08:38 | 45.13689 | 12.20644 | 3993 ft | 224 kts | 247° |
| 2026-05-06 08:38 | 45.13114 | 12.18589 | 3992 ft | 223 kts | 248° |
| 2026-05-06 08:38 | 45.12561 | 12.16540 | 3991 ft | 224 kts | 248° |
| 2026-05-06 08:38 | 45.12010 | 12.14473 | 3991 ft | 224 kts | 248° |
| 2026-05-06 08:39 | 45.11458 | 12.12400 | 3992 ft | 224 kts | 249° |
| 2026-05-06 08:39 | 45.10907 | 12.10325 | 3991 ft | 224 kts | 251° |
| 2026-05-06 08:39 | 45.10768 | 12.08180 | 3975 ft | 226 kts | 284° |
| 2026-05-06 08:39 | 45.11498 | 12.06238 | 3935 ft | 229 kts | 313° |
| 2026-05-06 08:40 | 45.12848 | 12.05072 | 3804 ft | 230 kts | 347° |
| 2026-05-06 08:40 | 45.14447 | 12.04967 | 3689 ft | 230 kts | 2° |
| 2026-05-06 08:40 | 45.16038 | 12.05128 | 3565 ft | 230 kts | 4° |
| 2026-05-06 08:40 | 45.17625 | 12.05305 | 3440 ft | 228 kts | 4° |
| 2026-05-06 08:41 | 45.19202 | 12.05466 | 3315 ft | 227 kts | 4° |
| 2026-05-06 08:41 | 45.20792 | 12.05612 | 3190 ft | 227 kts | 3° |
| 2026-05-06 08:41 | 45.22346 | 12.05745 | 3067 ft | 226 kts | 3° |
| 2026-05-06 08:41 | 45.23921 | 12.05876 | 2999 ft | 225 kts | 3° |
| 2026-05-06 08:42 | 45.25476 | 12.06006 | 2992 ft | 221 kts | 3° |
| 2026-05-06 08:42 | 45.26966 | 12.06270 | 2987 ft | 220 kts | 17° |
| 2026-05-06 08:42 | 45.28312 | 12.07120 | 3067 ft | 203 kts | 32° |
| 2026-05-06 08:42 | 45.29414 | 12.08249 | 3019 ft | 185 kts | 38° |
| 2026-05-06 08:43 | 45.30350 | 12.09341 | 2973 ft | 165 kts | 40° |
| 2026-05-06 08:43 | 45.31204 | 12.10381 | 2973 ft | 161 kts | 41° |
| 2026-05-06 08:43 | 45.32045 | 12.11429 | 2985 ft | 161 kts | 41° |
| 2026-05-06 08:43 | 45.32880 | 12.12483 | 2989 ft | 161 kts | 41° |
| 2026-05-06 08:44 | 45.33708 | 12.13541 | 2991 ft | 161 kts | 42° |
| 2026-05-06 08:44 | 45.34544 | 12.14616 | 2992 ft | 161 kts | 42° |
| 2026-05-06 08:44 | 45.35375 | 12.15688 | 2992 ft | 161 kts | 42° |
| 2026-05-06 08:44 | 45.36196 | 12.16749 | 2992 ft | 160 kts | 42° |
| 2026-05-06 08:45 | 45.37010 | 12.17802 | 2992 ft | 160 kts | 42° |
| 2026-05-06 08:45 | 45.37843 | 12.18879 | 2976 ft | 160 kts | 42° |
| 2026-05-06 08:45 | 45.38657 | 12.19931 | 2828 ft | 158 kts | 42° |
| 2026-05-06 08:45 | 45.39462 | 12.20970 | 2610 ft | 156 kts | 42° |
| 2026-05-06 08:46 | 45.40260 | 12.21999 | 2396 ft | 155 kts | 42° |
| 2026-05-06 08:46 | 45.41062 | 12.23032 | 2185 ft | 155 kts | 42° |
| 2026-05-06 08:46 | 45.41864 | 12.24065 | 1974 ft | 154 kts | 42° |
| 2026-05-06 08:46 | 45.42653 | 12.25080 | 1770 ft | 154 kts | 43° |
| 2026-05-06 08:47 | 45.43449 | 12.26104 | 1567 ft | 153 kts | 43° |
| 2026-05-06 08:47 | 45.44236 | 12.27115 | 1367 ft | 153 kts | 43° |
| 2026-05-06 08:47 | 45.45027 | 12.28133 | 1164 ft | 153 kts | 43° |
| 2026-05-06 08:47 | 45.45824 | 12.29158 | 962 ft | 154 kts | 43° |
| 2026-05-06 08:48 | 45.46617 | 12.30177 | 763 ft | 153 kts | 43° |
| 2026-05-06 08:48 | 45.47403 | 12.31187 | 554 ft | 153 kts | 43° |
| 2026-05-06 08:48 | 45.48204 | 12.32218 | 351 ft | 154 kts | 43° |
| 2026-05-06 08:48 | 45.48979 | 12.33214 | 150 ft | 154 kts | 43° |
| 2026-05-06 08:49 | 45.49727 | 12.34180 | 9 ft | 150 kts | 43° |
| 2026-05-06 08:49 | 45.50464 | 12.35126 | 9 ft | 94 kts | 38° |
| 2026-05-06 08:49 | 45.50770 | 12.35505 | 12 ft | 35 kts | 28° |
| 2026-05-06 08:49 | 45.50925 | 12.35562 | 12 ft | 18 kts | 4° |
| 2026-05-06 08:50 | 45.50989 | 12.35462 | 11 ft | 16 kts | 244° |
| 2026-05-06 08:50 | 45.50906 | 12.35340 | 9 ft | 17 kts | 221° |
| 2026-05-06 08:50 | 45.50818 | 12.35230 | 9 ft | 17 kts | 221° |
| 2026-05-06 08:50 | 45.50728 | 12.35117 | 9 ft | 16 kts | 221° |
| 2026-05-06 08:51 | 45.50646 | 12.35006 | 9 ft | 16 kts | 230° |
| 2026-05-06 08:51 | 45.50610 | 12.34868 | 9 ft | 16 kts | 264° |
| 2026-05-06 08:51 | 45.50605 | 12.34705 | 9 ft | 15 kts | 267° |
| 2026-05-06 08:51 | 45.50600 | 12.34549 | 9 ft | 15 kts | 267° |
| 2026-05-06 08:52 | 45.50590 | 12.34429 | 9 ft | 10 kts | 247° |
| 2026-05-06 08:52 | 45.50556 | 12.34356 | 9 ft | 9 kts | 250° |
| 2026-05-06 08:52 | 45.50551 | 12.34279 | 9 ft | 4 kts | 266° |
| 2026-05-06 08:52 | 45.50550 | 12.34252 | 9 ft | 3 kts | 266° |
| 2026-05-06 08:53 | 45.50549 | 12.34215 | 9 ft | 2 kts | 266° |
| 2026-05-06 08:53 | 45.50548 | 12.34211 | 9 ft | 0 kts | 266° |
| 2026-05-06 08:53 | 45.50548 | 12.34209 | 9 ft | 0 kts | 266° |